sensor_id;sensor_type;location;lat;lon;timestamp;pressure;altitude;pressure_sealevel;temperature;humidity
57572;BME280;44459;43.522;24.470;2023-05-23T00:01:35;100021.19;;;15.78;100.00
57572;BME280;44459;43.522;24.470;2023-05-23T00:04:02;100020.44;;;15.72;100.00
57572;BME280;44459;43.522;24.470;2023-05-23T00:06:28;100016.09;;;15.66;100.00
57572;BME280;44459;43.522;24.470;2023-05-23T00:08:53;100022.41;;;15.60;100.00
57572;BME280;44459;43.522;24.470;2023-05-23T00:11:19;100013.66;;;15.54;100.00
57572;BME280;44459;43.522;24.470;2023-05-23T00:13:48;100013.72;;;15.49;100.00
57572;BME280;44459;43.522;24.470;2023-05-23T00:16:15;100011.97;;;15.45;100.00
57572;BME280;44459;43.522;24.470;2023-05-23T00:18:41;100009.44;;;15.38;100.00
57572;BME280;44459;43.522;24.470;2023-05-23T00:21:07;100006.84;;;15.35;100.00
57572;BME280;44459;43.522;24.470;2023-05-23T00:23:34;100010.44;;;15.32;100.00
57572;BME280;44459;43.522;24.470;2023-05-23T00:25:59;100006.97;;;15.29;100.00
57572;BME280;44459;43.522;24.470;2023-05-23T00:28:25;100013.22;;;15.26;100.00
57572;BME280;44459;43.522;24.470;2023-05-23T00:30:51;100010.69;;;15.19;100.00
57572;BME280;44459;43.522;24.470;2023-05-23T00:33:16;100012.44;;;15.18;100.00
57572;BME280;44459;43.522;24.470;2023-05-23T00:35:46;100017.75;;;15.18;100.00
57572;BME280;44459;43.522;24.470;2023-05-23T00:38:11;100011.63;;;15.15;100.00
57572;BME280;44459;43.522;24.470;2023-05-23T00:40:38;100011.69;;;15.10;100.00
57572;BME280;44459;43.522;24.470;2023-05-23T00:43:04;100009.97;;;15.07;100.00
57572;BME280;44459;43.522;24.470;2023-05-23T00:45:30;100017.16;;;15.01;100.00
57572;BME280;44459;43.522;24.470;2023-05-23T00:47:55;100007.47;;;14.98;100.00
57572;BME280;44459;43.522;24.470;2023-05-23T00:50:23;100008.41;;;14.94;100.00
57572;BME280;44459;43.522;24.470;2023-05-23T00:52:49;99997.09;;;14.82;100.00
57572;BME280;44459;43.522;24.470;2023-05-23T00:55:15;100000.69;;;14.78;100.00
57572;BME280;44459;43.522;24.470;2023-05-23T00:57:40;100013.88;;;14.82;100.00
57572;BME280;44459;43.522;24.470;2023-05-23T01:00:09;100013.94;;;14.79;100.00
57572;BME280;44459;43.522;24.470;2023-05-23T01:02:42;100008.72;;;14.73;100.00
57572;BME280;44459;43.522;24.470;2023-05-23T01:05:13;100007.94;;;14.65;100.00
57572;BME280;44459;43.522;24.470;2023-05-23T01:07:42;99996.50;;;14.60;100.00
57572;BME280;44459;43.522;24.470;2023-05-23T01:10:09;99993.88;;;14.58;100.00
57572;BME280;44459;43.522;24.470;2023-05-23T01:15:13;100001.91;;;14.52;100.00
57572;BME280;44459;43.522;24.470;2023-05-23T01:17:50;99998.38;;;14.53;100.00
57572;BME280;44459;43.522;24.470;2023-05-23T01:20:56;99992.28;;;14.47;100.00
57572;BME280;44459;43.522;24.470;2023-05-23T01:29:08;99985.41;;;14.29;100.00
57572;BME280;44459;43.522;24.470;2023-05-23T01:31:41;99984.50;;;14.27;100.00
57572;BME280;44459;43.522;24.470;2023-05-23T01:34:09;99991.59;;;14.28;100.00
57572;BME280;44459;43.522;24.470;2023-05-23T01:36:39;99987.22;;;14.26;100.00
57572;BME280;44459;43.522;24.470;2023-05-23T01:39:06;99984.59;;;14.23;100.00
57572;BME280;44459;43.522;24.470;2023-05-23T01:41:32;99993.41;;;14.23;100.00
57572;BME280;44459;43.522;24.470;2023-05-23T01:43:57;99995.22;;;14.20;100.00
57572;BME280;44459;43.522;24.470;2023-05-23T01:46:23;99992.63;;;14.17;100.00
57572;BME280;44459;43.522;24.470;2023-05-23T01:48:52;99979.41;;;14.10;100.00
57572;BME280;44459;43.522;24.470;2023-05-23T01:51:20;99985.56;;;14.14;100.00
57572;BME280;44459;43.522;24.470;2023-05-23T01:53:46;99973.19;;;14.13;100.00
57572;BME280;44459;43.522;24.470;2023-05-23T01:56:12;99962.66;;;14.07;100.00
57572;BME280;44459;43.522;24.470;2023-05-23T01:58:38;99974.16;;;14.07;100.00
57572;BME280;44459;43.522;24.470;2023-05-23T02:01:03;99982.13;;;14.06;100.00
57572;BME280;44459;43.522;24.470;2023-05-23T02:03:29;99983.03;;;14.05;100.00
57572;BME280;44459;43.522;24.470;2023-05-23T02:05:55;99991.09;;;13.96;100.00
57572;BME280;44459;43.522;24.470;2023-05-23T02:08:20;99981.41;;;13.92;100.00
57572;BME280;44459;43.522;24.470;2023-05-23T02:10:45;99989.41;;;13.90;100.00
57572;BME280;44459;43.522;24.470;2023-05-23T02:13:11;99980.56;;;13.88;100.00
57572;BME280;44459;43.522;24.470;2023-05-23T02:15:36;99985.94;;;13.84;100.00
57572;BME280;44459;43.522;24.470;2023-05-23T02:18:02;99989.47;;;13.83;100.00
57572;BME280;44459;43.522;24.470;2023-05-23T02:20:28;99993.06;;;13.80;100.00
57572;BME280;44459;43.522;24.470;2023-05-23T02:22:53;99992.22;;;13.75;100.00
57572;BME280;44459;43.522;24.470;2023-05-23T02:25:19;99993.97;;;13.78;100.00
57572;BME280;44459;43.522;24.470;2023-05-23T02:27:44;99994.00;;;13.72;100.00
57572;BME280;44459;43.522;24.470;2023-05-23T02:30:10;99993.22;;;13.65;100.00
57572;BME280;44459;43.522;24.470;2023-05-23T02:32:36;100000.28;;;13.66;100.00
57572;BME280;44459;43.522;24.470;2023-05-23T02:35:02;100005.66;;;13.60;100.00
57572;BME280;44459;43.522;24.470;2023-05-23T02:37:27;100002.19;;;13.52;100.00
57572;BME280;44459;43.522;24.470;2023-05-23T02:39:53;100009.28;;;13.47;100.00
57572;BME280;44459;43.522;24.470;2023-05-23T02:42:18;100011.09;;;13.46;100.00
57572;BME280;44459;43.522;24.470;2023-05-23T02:44:44;100011.97;;;13.45;100.00
57572;BME280;44459;43.522;24.470;2023-05-23T02:47:09;100008.50;;;13.37;100.00
57572;BME280;44459;43.522;24.470;2023-05-23T02:49:35;100020.88;;;13.37;100.00
57572;BME280;44459;43.522;24.470;2023-05-23T02:52:00;100011.22;;;13.33;100.00
57572;BME280;44459;43.522;24.470;2023-05-23T02:54:26;100012.97;;;13.31;100.00
57572;BME280;44459;43.522;24.470;2023-05-23T02:56:51;100013.91;;;13.27;100.00
57572;BME280;44459;43.522;24.470;2023-05-23T02:59:18;100007.75;;;13.25;100.00
57572;BME280;44459;43.522;24.470;2023-05-23T03:01:44;100013.94;;;13.19;100.00
57572;BME280;44459;43.522;24.470;2023-05-23T03:04:09;100014.84;;;13.20;100.00
57572;BME280;44459;43.522;24.470;2023-05-23T03:06:34;100020.13;;;13.20;100.00
57572;BME280;44459;43.522;24.470;2023-05-23T03:09:01;100019.25;;;13.19;100.00
57572;BME280;44459;43.522;24.470;2023-05-23T03:11:26;100023.69;;;13.19;100.00
57572;BME280;44459;43.522;24.470;2023-05-23T03:13:54;100014.91;;;13.15;100.00
57572;BME280;44459;43.522;24.470;2023-05-23T03:16:21;100028.13;;;13.18;100.00
57572;BME280;44459;43.522;24.470;2023-05-23T03:18:46;100027.22;;;13.16;100.00
57572;BME280;44459;43.522;24.470;2023-05-23T03:21:11;100018.44;;;13.09;100.00
57572;BME280;44459;43.522;24.470;2023-05-23T03:23:37;100021.06;;;13.13;100.00
57572;BME280;44459;43.522;24.470;2023-05-23T03:26:02;100022.81;;;13.17;100.00
57572;BME280;44459;43.522;24.470;2023-05-23T03:28:30;100018.38;;;13.20;100.00
57572;BME280;44459;43.522;24.470;2023-05-23T03:30:55;100020.13;;;13.21;100.00
57572;BME280;44459;43.522;24.470;2023-05-23T03:33:20;100025.38;;;13.27;100.00
57572;BME280;44459;43.522;24.470;2023-05-23T03:35:46;100028.88;;;13.31;100.00
57572;BME280;44459;43.522;24.470;2023-05-23T03:38:11;100032.38;;;13.37;100.00
57572;BME280;44459;43.522;24.470;2023-05-23T03:40:37;100032.31;;;13.46;100.00
57572;BME280;44459;43.522;24.470;2023-05-23T03:43:07;100033.09;;;13.56;100.00
57572;BME280;44459;43.522;24.470;2023-05-23T03:45:33;100030.41;;;13.59;100.00
57572;BME280;44459;43.522;24.470;2023-05-23T03:47:59;100043.53;;;13.74;100.00
57572;BME280;44459;43.522;24.470;2023-05-23T03:50:25;100034.63;;;13.80;100.00
57572;BME280;44459;43.522;24.470;2023-05-23T03:52:51;100040.66;;;13.92;100.00
57572;BME280;44459;43.522;24.470;2023-05-23T03:55:17;100043.22;;;14.04;100.00
57572;BME280;44459;43.522;24.470;2023-05-23T03:57:50;100044.81;;;14.18;100.00
57572;BME280;44459;43.522;24.470;2023-05-23T04:00:16;100044.75;;;14.25;100.00
57572;BME280;44459;43.522;24.470;2023-05-23T04:02:43;100042.88;;;14.35;100.00
57572;BME280;44459;43.522;24.470;2023-05-23T04:05:10;100043.63;;;14.44;100.00
57572;BME280;44459;43.522;24.470;2023-05-23T04:07:36;100036.41;;;14.55;100.00
57572;BME280;44459;43.522;24.470;2023-05-23T04:10:02;100041.56;;;14.68;100.00
57572;BME280;44459;43.522;24.470;2023-05-23T04:12:28;100040.53;;;14.78;100.00
57572;BME280;44459;43.522;24.470;2023-05-23T04:14:54;100044.78;;;14.92;100.00
57572;BME280;44459;43.522;24.470;2023-05-23T04:17:20;100045.56;;;14.99;100.00
57572;BME280;44459;43.522;24.470;2023-05-23T04:19:47;100039.16;;;15.10;100.00
57572;BME280;44459;43.522;24.470;2023-05-23T04:22:12;100053.13;;;15.25;100.00
57572;BME280;44459;43.522;24.470;2023-05-23T04:24:37;100051.22;;;15.33;100.00
57572;BME280;44459;43.522;24.470;2023-05-23T04:27:03;100050.16;;;15.43;100.00
57572;BME280;44459;43.522;24.470;2023-05-23T04:29:28;100049.97;;;15.55;100.00
57572;BME280;44459;43.522;24.470;2023-05-23T04:31:56;100058.59;;;15.72;100.00
57572;BME280;44459;43.522;24.470;2023-05-23T04:34:22;100057.53;;;15.81;100.00
57572;BME280;44459;43.522;24.470;2023-05-23T04:36:48;100053.91;;;15.83;100.00
57572;BME280;44459;43.522;24.470;2023-05-23T04:39:14;100046.00;;;15.80;100.00
57572;BME280;44459;43.522;24.470;2023-05-23T04:41:40;100059.09;;;15.91;100.00
57572;BME280;44459;43.522;24.470;2023-05-23T04:44:06;100055.41;;;15.99;100.00
57572;BME280;44459;43.522;24.470;2023-05-23T04:46:34;100052.38;;;16.18;100.00
57572;BME280;44459;43.522;24.470;2023-05-23T04:49:01;100065.41;;;16.33;100.00
57572;BME280;44459;43.522;24.470;2023-05-23T04:51:26;100053.69;;;16.41;100.00
57572;BME280;44459;43.522;24.470;2023-05-23T04:53:52;100050.75;;;16.53;100.00
57572;BME280;44459;43.522;24.470;2023-05-23T04:56:17;100050.31;;;16.76;100.00
57572;BME280;44459;43.522;24.470;2023-05-23T04:58:47;100059.66;;;16.95;100.00
57572;BME280;44459;43.522;24.470;2023-05-23T05:01:13;100060.22;;;17.08;100.00
57572;BME280;44459;43.522;24.470;2023-05-23T05:03:39;100056.25;;;17.26;100.00
57572;BME280;44459;43.522;24.470;2023-05-23T05:06:05;100055.81;;;17.44;100.00
57572;BME280;44459;43.522;24.470;2023-05-23T05:08:31;100058.97;;;17.61;100.00
57572;BME280;44459;43.522;24.470;2023-05-23T05:10:57;100059.63;;;17.71;100.00
57572;BME280;44459;43.522;24.470;2023-05-23T05:13:22;100058.34;;;17.85;100.00
57572;BME280;44459;43.522;24.470;2023-05-23T05:15:48;100057.78;;;18.06;100.00
57572;BME280;44459;43.522;24.470;2023-05-23T05:18:13;100056.50;;;18.21;98.51
57572;BME280;44459;43.522;24.470;2023-05-23T05:20:39;100046.28;;;18.35;97.41
57572;BME280;44459;43.522;24.470;2023-05-23T05:23:04;100047.59;;;18.53;96.99
57572;BME280;44459;43.522;24.470;2023-05-23T05:25:30;100041.66;;;18.71;96.49
57572;BME280;44459;43.522;24.470;2023-05-23T05:28:00;100048.44;;;18.84;95.82
57572;BME280;44459;43.522;24.470;2023-05-23T05:30:30;100046.22;;;18.98;93.65
57572;BME280;44459;43.522;24.470;2023-05-23T05:32:57;100045.72;;;19.14;93.45
57572;BME280;44459;43.522;24.470;2023-05-23T05:35:23;100047.91;;;19.29;90.89
57572;BME280;44459;43.522;24.470;2023-05-23T05:37:48;100054.59;;;19.43;91.33
57572;BME280;44459;43.522;24.470;2023-05-23T05:40:14;100055.94;;;19.56;87.47
57572;BME280;44459;43.522;24.470;2023-05-23T05:42:39;100055.09;;;19.54;86.44
57572;BME280;44459;43.522;24.470;2023-05-23T05:45:05;100063.41;;;19.73;86.98
57572;BME280;44459;43.522;24.470;2023-05-23T05:47:31;100063.84;;;19.86;86.40
57572;BME280;44459;43.522;24.470;2023-05-23T05:49:56;100072.25;;;20.01;85.76
57572;BME280;44459;43.522;24.470;2023-05-23T05:52:22;100059.81;;;20.24;85.78
57572;BME280;44459;43.522;24.470;2023-05-23T05:54:47;100070.16;;;20.36;82.73
57572;BME280;44459;43.522;24.470;2023-05-23T05:57:12;100057.78;;;20.32;80.99
57572;BME280;44459;43.522;24.470;2023-05-23T05:59:38;100058.88;;;20.25;82.50
57572;BME280;44459;43.522;24.470;2023-05-23T06:02:03;100067.06;;;20.22;82.13
57572;BME280;44459;43.522;24.470;2023-05-23T06:04:29;100072.59;;;20.42;83.79
57572;BME280;44459;43.522;24.470;2023-05-23T06:06:55;100070.16;;;20.59;77.82
57572;BME280;44459;43.522;24.470;2023-05-23T06:09:20;100064.69;;;20.62;78.36
57572;BME280;44459;43.522;24.470;2023-05-23T06:11:46;100070.03;;;20.39;78.17
57572;BME280;44459;43.522;24.470;2023-05-23T06:14:11;100063.06;;;20.58;77.84
57572;BME280;44459;43.522;24.470;2023-05-23T06:16:37;100060.38;;;20.81;76.42
57572;BME280;44459;43.522;24.470;2023-05-23T06:19:02;100058.97;;;20.94;78.49
57572;BME280;44459;43.522;24.470;2023-05-23T06:21:28;100066.97;;;21.19;78.24
57572;BME280;44459;43.522;24.470;2023-05-23T06:23:53;100062.53;;;21.40;76.67
57572;BME280;44459;43.522;24.470;2023-05-23T06:26:18;100066.91;;;21.42;73.01
57572;BME280;44459;43.522;24.470;2023-05-23T06:28:44;100061.53;;;21.42;73.87
57572;BME280;44459;43.522;24.470;2023-05-23T06:31:09;100057.53;;;21.52;73.92
57572;BME280;44459;43.522;24.470;2023-05-23T06:33:35;100063.91;;;21.72;72.54
57572;BME280;44459;43.522;24.470;2023-05-23T06:36:00;100065.94;;;21.45;73.10
57572;BME280;44459;43.522;24.470;2023-05-23T06:38:28;100064.34;;;21.39;73.38
57572;BME280;44459;43.522;24.470;2023-05-23T06:40:55;100062.91;;;21.52;72.10
57572;BME280;44459;43.522;24.470;2023-05-23T06:43:20;100060.66;;;21.42;70.91
57572;BME280;44459;43.522;24.470;2023-05-23T06:45:46;100064.00;;;21.48;71.62
57572;BME280;44459;43.522;24.470;2023-05-23T06:48:12;100065.22;;;21.40;72.16
57572;BME280;44459;43.522;24.470;2023-05-23T06:50:37;100071.72;;;21.56;71.72
57572;BME280;44459;43.522;24.470;2023-05-23T06:53:03;100058.38;;;21.75;70.09
57572;BME280;44459;43.522;24.470;2023-05-23T06:55:28;100063.09;;;22.12;71.33
57572;BME280;44459;43.522;24.470;2023-05-23T06:57:54;100060.13;;;22.38;70.36
57572;BME280;44459;43.522;24.470;2023-05-23T07:00:20;100055.44;;;22.62;68.77
57572;BME280;44459;43.522;24.470;2023-05-23T07:02:45;100060.25;;;22.55;68.60
57572;BME280;44459;43.522;24.470;2023-05-23T07:05:13;100059.66;;;22.48;68.21
57572;BME280;44459;43.522;24.470;2023-05-23T07:07:39;100050.47;;;22.73;67.31
57572;BME280;44459;43.522;24.470;2023-05-23T07:10:05;100053.03;;;23.13;69.88
57572;BME280;44459;43.522;24.470;2023-05-23T07:12:31;100051.94;;;23.36;67.25
57572;BME280;44459;43.522;24.470;2023-05-23T07:14:57;100044.56;;;23.39;66.34
57572;BME280;44459;43.522;24.470;2023-05-23T07:17:22;100044.00;;;23.69;65.38
57572;BME280;44459;43.522;24.470;2023-05-23T07:19:47;100050.66;;;23.62;64.00
57572;BME280;44459;43.522;24.470;2023-05-23T07:22:13;100050.66;;;23.62;63.08
57572;BME280;44459;43.522;24.470;2023-05-23T07:24:38;100049.56;;;23.47;66.93
57572;BME280;44459;43.522;24.470;2023-05-23T07:27:04;100039.72;;;23.65;65.69
57572;BME280;44459;43.522;24.470;2023-05-23T07:29:30;100054.56;;;23.73;62.46
57572;BME280;44459;43.522;24.470;2023-05-23T07:31:56;100040.22;;;24.07;65.52
57572;BME280;44459;43.522;24.470;2023-05-23T07:34:23;100044.13;;;24.19;62.99
57572;BME280;44459;43.522;24.470;2023-05-23T07:36:49;100039.13;;;24.28;63.66
57572;BME280;44459;43.522;24.470;2023-05-23T07:39:14;100033.84;;;24.42;61.57
57572;BME280;44459;43.522;24.470;2023-05-23T07:41:46;100046.66;;;24.54;59.75
57572;BME280;44459;43.522;24.470;2023-05-23T07:44:11;100036.56;;;24.58;58.72
57572;BME280;44459;43.522;24.470;2023-05-23T07:46:37;100039.75;;;24.66;57.49
57572;BME280;44459;43.522;24.470;2023-05-23T07:49:02;100043.28;;;24.84;59.98
57572;BME280;44459;43.522;24.470;2023-05-23T07:51:27;100036.50;;;24.60;57.15
57572;BME280;44459;43.522;24.470;2023-05-23T07:53:53;100030.22;;;24.43;59.26
57572;BME280;44459;43.522;24.470;2023-05-23T07:56:18;100032.50;;;24.34;60.61
57572;BME280;44459;43.522;24.470;2023-05-23T07:58:44;100038.72;;;24.19;59.80
57572;BME280;44459;43.522;24.470;2023-05-23T08:01:09;100040.28;;;24.40;59.11
57572;BME280;44459;43.522;24.470;2023-05-23T08:03:35;100035.16;;;24.51;59.70
57572;BME280;44459;43.522;24.470;2023-05-23T08:06:01;100034.06;;;25.03;62.14
57572;BME280;44459;43.522;24.470;2023-05-23T08:08:27;100033.56;;;25.13;57.01
57572;BME280;44459;43.522;24.470;2023-05-23T08:10:52;100020.50;;;25.05;56.75
57572;BME280;44459;43.522;24.470;2023-05-23T08:13:18;100024.47;;;25.14;56.45
57572;BME280;44459;43.522;24.470;2023-05-23T08:15:43;100028.06;;;25.30;55.65
57572;BME280;44459;43.522;24.470;2023-05-23T08:18:08;100028.13;;;25.60;54.25
57572;BME280;44459;43.522;24.470;2023-05-23T08:20:34;100031.84;;;25.73;53.88
57572;BME280;44459;43.522;24.470;2023-05-23T08:23:00;100028.56;;;25.97;56.07
57572;BME280;44459;43.522;24.470;2023-05-23T08:25:27;100021.16;;;26.15;54.66
57572;BME280;44459;43.522;24.470;2023-05-23T08:27:59;100020.34;;;26.29;55.14
57572;BME280;44459;43.522;24.470;2023-05-23T08:30:26;100022.09;;;26.30;52.36
57572;BME280;44459;43.522;24.470;2023-05-23T08:32:52;100025.06;;;26.25;52.74
57572;BME280;44459;43.522;24.470;2023-05-23T08:35:19;100024.31;;;26.37;53.87
57572;BME280;44459;43.522;24.470;2023-05-23T08:37:45;100017.84;;;26.40;53.41
57572;BME280;44459;43.522;24.470;2023-05-23T08:40:17;100021.63;;;26.51;52.43
57572;BME280;44459;43.522;24.470;2023-05-23T08:42:44;100021.13;;;26.59;46.29
57572;BME280;44459;43.522;24.470;2023-05-23T08:45:09;100007.22;;;26.37;50.07
57572;BME280;44459;43.522;24.470;2023-05-23T08:47:41;100013.97;;;26.30;46.24
57572;BME280;44459;43.522;24.470;2023-05-23T08:50:07;100014.38;;;26.38;45.84
57572;BME280;44459;43.522;24.470;2023-05-23T08:52:36;100013.88;;;26.45;45.49
57572;BME280;44459;43.522;24.470;2023-05-23T08:55:06;100015.34;;;26.65;47.04
57572;BME280;44459;43.522;24.470;2023-05-23T08:57:32;100010.75;;;26.80;46.80
57572;BME280;44459;43.522;24.470;2023-05-23T08:59:59;100019.38;;;26.30;45.52
57572;BME280;44459;43.522;24.470;2023-05-23T09:02:25;100009.47;;;26.15;45.92
57572;BME280;44459;43.522;24.470;2023-05-23T09:04:51;100012.75;;;26.06;47.51
57572;BME280;44459;43.522;24.470;2023-05-23T09:07:17;100011.72;;;25.78;48.92
57572;BME280;44459;43.522;24.470;2023-05-23T09:09:43;100005.25;;;25.65;50.05
57572;BME280;44459;43.522;24.470;2023-05-23T09:12:09;100003.16;;;25.70;46.58
57572;BME280;44459;43.522;24.470;2023-05-23T09:14:37;100004.34;;;25.80;46.46
57572;BME280;44459;43.522;24.470;2023-05-23T09:17:03;99996.97;;;25.98;47.83
57572;BME280;44459;43.522;24.470;2023-05-23T09:19:28;99999.34;;;26.18;48.86
57572;BME280;44459;43.522;24.470;2023-05-23T09:21:54;99994.97;;;26.16;48.00
57572;BME280;44459;43.522;24.470;2023-05-23T09:24:20;100011.78;;;26.07;48.72
57572;BME280;44459;43.522;24.470;2023-05-23T09:26:46;100003.78;;;25.89;47.53
57572;BME280;44459;43.522;24.470;2023-05-23T09:29:18;100002.59;;;26.09;48.70
57572;BME280;44459;43.522;24.470;2023-05-23T09:31:43;100003.28;;;26.13;47.53
57572;BME280;44459;43.522;24.470;2023-05-23T09:34:09;100001.22;;;26.02;45.77
57572;BME280;44459;43.522;24.470;2023-05-23T09:36:35;100008.69;;;25.83;46.09
57572;BME280;44459;43.522;24.470;2023-05-23T09:39:03;99999.38;;;25.88;46.53
57572;BME280;44459;43.522;24.470;2023-05-23T09:41:34;99996.22;;;26.10;45.90
57572;BME280;44459;43.522;24.470;2023-05-23T09:44:04;99994.44;;;26.25;46.36
57572;BME280;44459;43.522;24.470;2023-05-23T09:46:34;99995.50;;;26.36;46.38
57572;BME280;44459;43.522;24.470;2023-05-23T09:49:00;99997.75;;;26.72;47.64
57572;BME280;44459;43.522;24.470;2023-05-23T09:51:25;99989.72;;;26.85;46.69
57572;BME280;44459;43.522;24.470;2023-05-23T09:53:52;99982.94;;;27.19;46.01
57572;BME280;44459;43.522;24.470;2023-05-23T09:56:18;99984.03;;;27.43;48.68
57572;BME280;44459;43.522;24.470;2023-05-23T09:58:47;99981.72;;;27.37;42.95
57572;BME280;44459;43.522;24.470;2023-05-23T10:01:14;99981.50;;;27.27;43.91
57572;BME280;44459;43.522;24.470;2023-05-23T10:07:00;99973.16;;;26.89;45.88
57572;BME280;44459;43.522;24.470;2023-05-23T10:09:04;99980.41;;;27.03;47.04
57572;BME280;44459;43.522;24.470;2023-05-23T10:14:00;99977.72;;;26.89;46.33
57572;BME280;44459;43.522;24.470;2023-05-23T10:16:36;99970.44;;;26.75;47.70
57572;BME280;44459;43.522;24.470;2023-05-23T10:19:12;99965.31;;;26.99;48.33
57572;BME280;44459;43.522;24.470;2023-05-23T10:21:43;99968.47;;;27.32;45.20
57572;BME280;44459;43.522;24.470;2023-05-23T10:24:10;99968.94;;;27.39;45.84
57572;BME280;44459;43.522;24.470;2023-05-23T10:26:36;99973.44;;;27.26;44.96
57572;BME280;44459;43.522;24.470;2023-05-23T10:29:02;99967.75;;;27.16;45.41
57572;BME280;44459;43.522;24.470;2023-05-23T10:31:29;99963.09;;;27.18;45.73
57572;BME280;44459;43.522;24.470;2023-05-23T10:34:02;99951.09;;;26.95;44.84
57572;BME280;44459;43.522;24.470;2023-05-23T10:36:37;99953.59;;;26.98;43.20
57572;BME280;44459;43.522;24.470;2023-05-23T10:39:14;99948.91;;;27.00;43.36
57572;BME280;44459;43.522;24.470;2023-05-23T10:41:49;99954.25;;;27.29;45.99
57572;BME280;44459;43.522;24.470;2023-05-23T10:44:24;99950.47;;;27.45;45.22
57572;BME280;44459;43.522;24.470;2023-05-23T10:46:57;99953.09;;;27.06;41.49
57572;BME280;44459;43.522;24.470;2023-05-23T10:49:45;99946.06;;;26.75;42.18
57572;BME280;44459;43.522;24.470;2023-05-23T10:52:13;99953.69;;;26.12;44.80
57572;BME280;44459;43.522;24.470;2023-05-23T10:54:42;99953.16;;;26.21;46.74
57572;BME280;44459;43.522;24.470;2023-05-23T10:57:10;99943.06;;;26.09;45.55
57572;BME280;44459;43.522;24.470;2023-05-23T10:59:38;99947.47;;;26.40;43.91
57572;BME280;44459;43.522;24.470;2023-05-23T11:02:14;99938.38;;;26.55;45.51
57572;BME280;44459;43.522;24.470;2023-05-23T11:04:40;99942.25;;;26.23;46.53
57572;BME280;44459;43.522;24.470;2023-05-23T11:07:35;99940.56;;;26.06;45.18
57572;BME280;44459;43.522;24.470;2023-05-23T11:10:13;99947.59;;;26.09;44.75
57572;BME280;44459;43.522;24.470;2023-05-23T11:12:43;99941.97;;;26.27;46.12
57572;BME280;44459;43.522;24.470;2023-05-23T11:17:56;99935.28;;;26.47;44.41
57572;BME280;44459;43.522;24.470;2023-05-23T11:20:24;99930.19;;;26.83;41.25
57572;BME280;44459;43.522;24.470;2023-05-23T11:23:03;99935.78;;;26.80;41.51
57572;BME280;44459;43.522;24.470;2023-05-23T11:25:47;99933.78;;;26.56;42.27
57572;BME280;44459;43.522;24.470;2023-05-23T11:28:13;99923.13;;;26.81;43.59
57572;BME280;44459;43.522;24.470;2023-05-23T11:30:39;99927.47;;;26.69;42.46
57572;BME280;44459;43.522;24.470;2023-05-23T11:33:12;99927.81;;;26.65;40.79
57572;BME280;44459;43.522;24.470;2023-05-23T11:35:45;99920.53;;;26.79;39.56
57572;BME280;44459;43.522;24.470;2023-05-23T11:38:13;99925.16;;;26.91;40.30
57572;BME280;44459;43.522;24.470;2023-05-23T11:40:42;99922.16;;;26.96;40.87
57572;BME280;44459;43.522;24.470;2023-05-23T11:43:09;99920.53;;;26.93;40.39
57572;BME280;44459;43.522;24.470;2023-05-23T11:45:36;99912.41;;;26.93;42.34
57572;BME280;44459;43.522;24.470;2023-05-23T11:50:31;99912.22;;;27.09;38.76
57572;BME280;44459;43.522;24.470;2023-05-23T11:52:56;99902.31;;;26.81;39.50
57572;BME280;44459;43.522;24.470;2023-05-23T11:55:22;99900.91;;;26.76;38.82
57572;BME280;44459;43.522;24.470;2023-05-23T11:57:48;99897.06;;;26.66;37.97
57572;BME280;44459;43.522;24.470;2023-05-23T12:00:15;99897.09;;;26.51;37.77
57572;BME280;44459;43.522;24.470;2023-05-23T12:02:41;99888.28;;;26.48;39.83
57572;BME280;44459;43.522;24.470;2023-05-23T12:05:12;99895.06;;;26.96;38.56
57572;BME280;44459;43.522;24.470;2023-05-23T12:07:42;99892.59;;;27.06;36.54
57572;BME280;44459;43.522;24.470;2023-05-23T12:10:11;99891.06;;;27.01;38.03
57572;BME280;44459;43.522;24.470;2023-05-23T12:12:40;99889.00;;;27.05;36.54
57572;BME280;44459;43.522;24.470;2023-05-23T12:15:07;99887.25;;;27.04;36.70
57572;BME280;44459;43.522;24.470;2023-05-23T12:17:33;99882.94;;;27.01;35.27
57572;BME280;44459;43.522;24.470;2023-05-23T12:19:59;99886.47;;;26.89;37.03
57572;BME280;44459;43.522;24.470;2023-05-23T12:22:25;99878.72;;;26.83;38.78
57572;BME280;44459;43.522;24.470;2023-05-23T12:24:54;99888.31;;;26.89;40.53
57572;BME280;44459;43.522;24.470;2023-05-23T12:27:33;99877.94;;;26.81;38.70
57572;BME280;44459;43.522;24.470;2023-05-23T12:30:15;99880.41;;;26.72;39.13
57572;BME280;44459;43.522;24.470;2023-05-23T12:32:43;99869.00;;;26.52;39.90
57572;BME280;44459;43.522;24.470;2023-05-23T12:35:10;99873.03;;;26.33;38.77
57572;BME280;44459;43.522;24.470;2023-05-23T12:37:48;99872.06;;;26.20;39.34
57572;BME280;44459;43.522;24.470;2023-05-23T12:40:17;99867.88;;;26.14;40.70
57572;BME280;44459;43.522;24.470;2023-05-23T12:42:54;99868.84;;;26.13;41.64
57572;BME280;44459;43.522;24.470;2023-05-23T12:45:29;99866.13;;;26.41;44.92
57572;BME280;44459;43.522;24.470;2023-05-23T12:47:55;99857.94;;;26.84;46.60
57572;BME280;44459;43.522;24.470;2023-05-23T12:50:21;99849.69;;;27.25;45.28
57572;BME280;44459;43.522;24.470;2023-05-23T12:52:46;99848.81;;;27.51;44.27
57572;BME280;44459;43.522;24.470;2023-05-23T12:55:12;99839.38;;;27.57;44.02
57572;BME280;44459;43.522;24.470;2023-05-23T12:57:37;99847.47;;;27.44;44.20
57572;BME280;44459;43.522;24.470;2023-05-23T13:00:04;99840.31;;;27.43;43.71